createdAt,value
2022-12-23T00:01:56.739Z,101085.66
2022-12-23T00:04:24.204Z,101096.03
2022-12-23T00:06:51.540Z,101090.94
2022-12-23T00:09:19.332Z,101092.06
2022-12-23T00:12:05.137Z,101093.88
2022-12-23T00:14:51.195Z,101089.09
2022-12-23T00:17:22.721Z,101072.72
2022-12-23T00:19:50.786Z,101069.03
2022-12-23T00:22:18.643Z,101049.50
2022-12-23T00:24:46.333Z,101054.81
2022-12-23T00:27:13.736Z,101063.44
2022-12-23T00:29:41.079Z,101065.59
2022-12-23T00:32:08.879Z,101065.78
2022-12-23T00:34:36.341Z,101077.34
2022-12-23T00:37:03.845Z,101073.22
2022-12-23T00:39:54.638Z,101071.19
2022-12-23T00:42:41.389Z,101097.84
2022-12-23T00:45:18.019Z,101098.31
2022-12-23T00:48:05.200Z,101088.19
2022-12-23T00:50:34.286Z,101086.25
2022-12-23T00:53:01.693Z,101090.97
2022-12-23T00:55:29.295Z,101091.09
2022-12-23T00:57:56.686Z,101097.53
2022-12-23T01:00:44.796Z,101103.41
2022-12-23T01:03:31.446Z,101116.44
2022-12-23T01:05:59.732Z,101111.84
2022-12-23T01:08:27.710Z,101107.00
2022-12-23T01:10:55.141Z,101104.94
2022-12-23T01:13:22.939Z,101108.84
2022-12-23T01:15:50.713Z,101102.41
2022-12-23T01:18:17.974Z,101104.44
2022-12-23T01:20:45.844Z,101119.13
2022-12-23T01:23:13.137Z,101115.34
2022-12-23T01:25:40.862Z,101110.03
2022-12-23T01:28:08.463Z,101099.25
2022-12-23T01:30:37.526Z,101084.88
2022-12-23T01:33:05.316Z,101115.91
2022-12-23T01:35:32.637Z,101117.75
2022-12-23T01:38:00.186Z,101102.75
2022-12-23T01:40:27.936Z,101092.19
2022-12-23T01:42:55.382Z,101109.31
2022-12-23T01:45:30.013Z,101096.06
2022-12-23T01:48:02.647Z,101077.09
2022-12-23T01:50:30.261Z,101077.16
2022-12-23T01:53:06.822Z,101069.31
2022-12-23T01:55:41.344Z,101077.25
2022-12-23T01:58:31.821Z,101080.47
2022-12-23T02:01:17.682Z,101075.34
2022-12-23T02:03:46.460Z,101070.25
2022-12-23T02:06:37.254Z,101081.34
2022-12-23T02:09:17.863Z,101086.56
2022-12-23T02:12:03.677Z,101092.94
2022-12-23T02:14:53.555Z,101091.50
2022-12-23T02:17:25.895Z,101072.34
2022-12-23T02:20:11.881Z,101077.16
2022-12-23T02:22:58.078Z,101071.59
2022-12-23T02:25:28.090Z,101083.09
2022-12-23T02:28:14.266Z,101084.19
2022-12-23T02:30:48.503Z,101071.19
2022-12-23T02:33:16.105Z,101067.13
2022-12-23T02:35:54.257Z,101064.59
2022-12-23T02:38:40.924Z,101056.50
2022-12-23T02:41:16.216Z,101071.38
2022-12-23T02:43:47.043Z,101061.75
2022-12-23T02:46:20.276Z,101053.50
2022-12-23T02:48:51.395Z,101062.41
2022-12-23T02:51:21.538Z,101070.09
2022-12-23T02:53:53.961Z,101055.75
2022-12-23T02:56:23.923Z,101050.81
2022-12-23T02:58:54.534Z,101044.69
2022-12-23T03:01:23.313Z,101047.81
2022-12-23T03:03:51.181Z,101055.84
2022-12-23T03:06:45.179Z,101052.13
2022-12-23T03:09:24.771Z,101048.97
2022-12-23T03:11:59.536Z,101041.56
2022-12-23T03:14:45.665Z,101036.41
2022-12-23T03:17:13.378Z,101039.44
2022-12-23T03:19:57.718Z,101053.44
2022-12-23T03:22:26.615Z,101051.59
2022-12-23T03:25:06.228Z,101057.91
2022-12-23T03:27:39.444Z,101058.72
2022-12-23T03:30:25.695Z,101051.75
2022-12-23T03:32:58.372Z,101051.59
2022-12-23T03:35:31.396Z,101048.91
2022-12-23T03:38:00.712Z,101045.00
2022-12-23T03:40:37.372Z,101050.75
2022-12-23T03:43:07.365Z,101051.00
2022-12-23T03:45:41.704Z,101040.22
2022-12-23T03:48:15.870Z,101021.22
2022-12-23T03:50:43.371Z,101026.72
2022-12-23T03:53:15.113Z,101034.47
2022-12-23T03:55:47.261Z,101027.97
2022-12-23T03:58:24.584Z,101030.16
2022-12-23T04:00:59.021Z,101041.31
2022-12-23T04:03:26.378Z,101029.81
2022-12-23T04:05:57.937Z,101044.31
2022-12-23T04:08:32.011Z,101038.28
2022-12-23T04:10:59.805Z,101032.78
2022-12-23T04:13:28.069Z,101018.09
2022-12-23T04:15:57.336Z,101013.91
2022-12-23T04:18:25.062Z,101021.25
2022-12-23T04:20:52.436Z,101021.75
2022-12-23T04:23:20.164Z,101023.09
2022-12-23T04:25:47.986Z,101018.88
2022-12-23T04:28:15.409Z,101023.31
2022-12-23T04:30:42.769Z,101031.25
2022-12-23T04:33:11.434Z,101033.19
2022-12-23T04:35:39.237Z,101027.97
2022-12-23T04:38:07.628Z,101026.84
2022-12-23T04:40:34.994Z,101030.22
2022-12-23T04:43:02.766Z,101027.47
2022-12-23T04:45:30.571Z,101033.84
2022-12-23T04:47:58.598Z,101044.31
2022-12-23T04:50:25.924Z,101036.19
2022-12-23T04:52:53.786Z,101032.25
2022-12-23T04:55:21.296Z,101038.44
2022-12-23T04:57:48.586Z,101039.78
2022-12-23T05:00:16.622Z,101031.00
2022-12-23T05:02:44.203Z,101028.97
2022-12-23T05:05:12.789Z,101028.06
2022-12-23T05:07:40.489Z,101038.78
2022-12-23T05:10:08.347Z,101023.75
2022-12-23T05:12:35.636Z,101023.41
2022-12-23T05:15:03.239Z,101027.56
2022-12-23T05:17:30.713Z,101034.41
2022-12-23T05:19:58.219Z,101027.31
2022-12-23T05:22:25.965Z,101033.56
2022-12-23T05:24:53.328Z,101043.81
2022-12-23T05:27:21.054Z,101037.44
2022-12-23T05:29:48.377Z,101057.59
2022-12-23T05:32:16.205Z,101042.41
2022-12-23T05:34:44.228Z,101047.44
2022-12-23T05:37:11.649Z,101038.09
2022-12-23T05:39:39.220Z,101038.44
2022-12-23T05:42:07.093Z,101030.75
2022-12-23T05:44:35.237Z,101032.34
2022-12-23T05:47:02.572Z,101043.97
2022-12-23T05:49:30.073Z,101039.66
2022-12-23T05:51:57.441Z,101040.56
2022-12-23T05:54:25.413Z,101043.19
2022-12-23T05:56:52.698Z,101038.66
2022-12-23T05:59:20.262Z,101039.44
2022-12-23T06:01:47.650Z,101042.53
2022-12-23T06:04:15.223Z,101049.03
2022-12-23T06:06:42.525Z,101050.91
2022-12-23T06:09:10.846Z,101052.66
2022-12-23T06:11:38.220Z,101053.34
2022-12-23T06:14:07.517Z,101050.66
2022-12-23T06:16:34.999Z,101053.50
2022-12-23T06:19:02.629Z,101057.44
2022-12-23T06:21:30.066Z,101060.91
2022-12-23T06:23:57.391Z,101063.03
2022-12-23T06:26:24.819Z,101071.94
2022-12-23T06:28:52.949Z,101077.03
2022-12-23T06:31:20.791Z,101073.81
2022-12-23T06:33:48.119Z,101081.13
2022-12-23T06:36:15.875Z,101072.78
2022-12-23T06:38:43.754Z,101068.78
2022-12-23T06:41:11.478Z,101079.59
2022-12-23T06:43:38.868Z,101081.63
2022-12-23T06:46:06.856Z,101089.47
2022-12-23T06:48:34.647Z,101094.00
2022-12-23T06:51:01.927Z,101098.31
2022-12-23T06:53:29.210Z,101104.31
2022-12-23T06:56:03.339Z,101089.03
2022-12-23T06:58:31.188Z,101084.31
2022-12-23T07:00:58.556Z,101095.91
2022-12-23T07:03:25.976Z,101091.16
2022-12-23T07:05:54.551Z,101097.25
2022-12-23T07:08:22.834Z,101093.59
2022-12-23T07:10:50.345Z,101084.81
2022-12-23T07:13:17.676Z,101100.59
2022-12-23T07:15:45.015Z,101106.00
2022-12-23T07:18:12.751Z,101101.97
2022-12-23T07:20:40.221Z,101085.50
2022-12-23T07:23:08.023Z,101087.56
2022-12-23T07:25:35.333Z,101105.44
2022-12-23T07:28:02.623Z,101101.22
2022-12-23T07:30:30.293Z,101106.63
2022-12-23T07:32:57.679Z,101092.53
2022-12-23T07:35:25.144Z,101097.94
2022-12-23T07:37:53.520Z,101094.63
2022-12-23T07:40:21.419Z,101097.34
2022-12-23T07:42:50.031Z,101094.28
2022-12-23T07:45:17.304Z,101088.75
2022-12-23T07:47:44.607Z,101106.06
2022-12-23T07:50:12.438Z,101090.72
2022-12-23T07:52:40.669Z,101097.44
2022-12-23T07:55:08.641Z,101090.94
2022-12-23T07:57:38.208Z,101093.81
2022-12-23T08:00:07.268Z,101101.06
2022-12-23T08:02:40.170Z,101099.22
2022-12-23T08:05:08.848Z,101099.91
2022-12-23T08:07:36.614Z,101097.28
2022-12-23T08:10:04.472Z,101093.81
2022-12-23T08:12:32.099Z,101094.66
2022-12-23T08:14:59.403Z,101105.72
2022-12-23T08:17:27.261Z,101110.19
2022-12-23T08:19:55.107Z,101109.75
2022-12-23T08:22:23.709Z,101118.31
2022-12-23T08:24:52.604Z,101088.34
2022-12-23T08:27:20.141Z,101106.56
2022-12-23T08:29:48.165Z,101093.56
2022-12-23T08:32:15.480Z,101100.53
2022-12-23T08:34:43.202Z,101125.34
2022-12-23T08:37:10.525Z,101114.03
2022-12-23T08:39:37.872Z,101112.25
2022-12-23T08:42:05.323Z,101100.72
2022-12-23T08:44:32.795Z,101100.16
2022-12-23T08:47:00.228Z,101090.59
2022-12-23T08:49:27.622Z,101092.03
2022-12-23T08:51:55.009Z,101087.34
2022-12-23T08:54:23.822Z,101093.69
2022-12-23T08:56:51.745Z,101091.25
2022-12-23T08:59:20.027Z,101096.16
2022-12-23T09:01:47.865Z,101086.44
2022-12-23T09:04:15.972Z,101090.72
2022-12-23T09:06:43.942Z,101085.44
2022-12-23T09:09:12.151Z,101095.75
2022-12-23T09:11:39.549Z,101097.34
2022-12-23T09:14:08.802Z,101099.03
2022-12-23T09:16:36.737Z,101102.84
2022-12-23T09:19:05.304Z,101095.00
2022-12-23T09:21:32.691Z,101107.22
2022-12-23T09:24:00.118Z,101112.97
2022-12-23T09:26:29.220Z,101116.63
2022-12-23T09:28:56.731Z,101108.63
2022-12-23T09:31:25.212Z,101116.50
2022-12-23T09:33:54.295Z,101116.94
2022-12-23T09:36:22.399Z,101106.41
2022-12-23T09:38:57.765Z,101100.47
2022-12-23T09:41:40.518Z,101102.22
2022-12-23T09:44:15.705Z,101091.97
2022-12-23T09:46:47.980Z,101090.53
2022-12-23T09:49:17.601Z,101093.69
2022-12-23T09:51:46.765Z,101103.28
2022-12-23T09:54:17.761Z,101107.78
2022-12-23T09:56:48.585Z,101111.47
2022-12-23T09:59:21.891Z,101112.22
2022-12-23T10:02:12.704Z,101112.81
2022-12-23T10:04:52.931Z,101115.44
2022-12-23T10:07:39.171Z,101121.84
2022-12-23T10:10:27.318Z,101127.06
2022-12-23T10:12:55.996Z,101133.44
2022-12-23T10:15:28.205Z,101119.91
2022-12-23T10:17:57.123Z,101117.53
2022-12-23T10:20:37.489Z,101116.59
2022-12-23T10:23:06.973Z,101106.69
2022-12-23T10:25:39.151Z,101107.22
2022-12-23T10:28:09.054Z,101111.56
2022-12-23T10:33:43.862Z,101099.69
2022-12-23T10:36:11.177Z,101086.88
2022-12-23T10:38:38.480Z,101108.78
2022-12-23T10:41:11.904Z,101097.84
2022-12-23T10:43:39.233Z,101096.56
2022-12-23T10:46:07.641Z,101087.44
2022-12-23T10:48:40.830Z,101093.38
2022-12-23T10:51:14.805Z,101088.66
2022-12-23T10:53:47.181Z,101086.47
2022-12-23T10:56:16.228Z,101077.84
2022-12-23T10:58:45.661Z,101070.78
2022-12-23T11:01:18.888Z,101074.75
2022-12-23T11:04:02.658Z,101070.97
2022-12-23T11:06:36.854Z,101062.03
2022-12-23T11:09:05.625Z,101065.97
2022-12-23T11:11:55.619Z,101072.09
2022-12-23T11:14:30.543Z,101076.13
2022-12-23T11:16:58.861Z,101055.50
2022-12-23T11:19:26.787Z,101062.25
2022-12-23T11:21:55.658Z,101064.31
2022-12-23T11:24:23.539Z,101064.44
2022-12-23T11:27:01.739Z,101072.00
2022-12-23T11:29:32.283Z,101056.06
2022-12-23T11:31:59.957Z,101061.53
2022-12-23T11:34:31.532Z,101059.84
2022-12-23T11:37:05.249Z,101060.22
2022-12-23T11:39:38.006Z,101041.56
2022-12-23T11:42:17.513Z,101031.59
2022-12-23T11:44:50.442Z,101034.31
2022-12-23T11:47:19.529Z,101030.25
2022-12-23T11:49:49.574Z,101031.81
2022-12-23T11:52:21.479Z,101036.81
2022-12-23T11:54:54.464Z,101032.00
2022-12-23T11:57:42.322Z,101030.84
2022-12-23T12:00:24.146Z,101024.88
2022-12-23T12:02:53.731Z,101023.34
2022-12-23T12:05:26.125Z,101006.91
2022-12-23T12:07:58.917Z,101004.38
2022-12-23T12:10:28.119Z,100998.53
2022-12-23T12:12:57.499Z,100985.16
2022-12-23T12:15:42.433Z,100975.72
2022-12-23T12:18:12.400Z,100977.97
2022-12-23T12:20:42.136Z,100991.56
2022-12-23T12:23:22.456Z,100989.16
2022-12-23T12:26:05.115Z,100984.56
2022-12-23T12:28:32.848Z,100989.97
2022-12-23T12:31:13.310Z,100988.41
2022-12-23T12:34:15.958Z,101000.22
2022-12-23T12:36:46.256Z,100999.47
2022-12-23T12:39:17.950Z,100998.59
2022-12-23T12:42:00.146Z,100996.25
2022-12-23T12:44:43.740Z,100986.38
2022-12-23T12:47:36.760Z,100982.47
2022-12-23T12:50:08.494Z,100977.84
2022-12-23T12:52:39.192Z,100962.69
2022-12-23T12:55:07.119Z,100959.84
2022-12-23T12:57:35.788Z,100951.59
2022-12-23T13:00:06.963Z,100948.63
2022-12-23T13:02:34.929Z,100967.78
2022-12-23T13:05:05.728Z,100978.66
2022-12-23T13:07:42.733Z,100965.81
2022-12-23T13:10:30.438Z,100963.53
2022-12-23T13:12:57.827Z,100972.38
2022-12-23T13:15:25.302Z,100968.72
2022-12-23T13:18:04.443Z,100979.03
2022-12-23T13:20:50.601Z,100983.03
2022-12-23T13:23:48.610Z,100995.31
2022-12-23T13:26:16.414Z,100992.50
2022-12-23T13:29:00.109Z,100996.81
2022-12-23T13:31:37.835Z,101003.72
2022-12-23T13:34:24.039Z,101014.09
2022-12-23T13:37:18.079Z,101014.47
2022-12-23T13:39:51.917Z,101010.88
2022-12-23T13:42:39.490Z,101014.94
2022-12-23T13:45:13.303Z,101003.34
2022-12-23T13:47:43.531Z,101004.09
2022-12-23T13:50:10.792Z,101001.94
2022-12-23T13:52:58.849Z,101011.66
2022-12-23T13:55:45.152Z,101007.44
2022-12-23T13:58:22.527Z,101007.91
2022-12-23T14:00:59.727Z,101011.16
2022-12-23T14:03:33.692Z,101020.63
2022-12-23T14:06:22.474Z,101020.56
2022-12-23T14:08:54.534Z,101025.63
2022-12-23T14:11:24.181Z,101025.50
2022-12-23T14:13:51.639Z,101024.38
2022-12-23T14:16:19.237Z,101016.28
2022-12-23T14:18:49.492Z,101020.25
2022-12-23T14:21:28.313Z,101023.06
2022-12-23T14:23:59.589Z,101018.75
2022-12-23T14:26:31.336Z,101020.06
2022-12-23T14:29:01.766Z,101023.06
2022-12-23T14:31:31.132Z,101017.75
2022-12-23T14:34:17.335Z,101016.16
2022-12-23T14:37:03.392Z,101027.00
2022-12-23T14:39:32.748Z,101030.75
2022-12-23T14:42:05.519Z,101020.47
2022-12-23T14:44:35.447Z,101019.88
2022-12-23T14:47:25.498Z,101013.31
2022-12-23T14:49:53.343Z,101007.81
2022-12-23T14:52:40.798Z,101016.50
2022-12-23T14:55:35.514Z,101013.78
2022-12-23T14:58:09.182Z,101020.81
2022-12-23T15:00:46.212Z,101016.13
2022-12-23T15:03:14.103Z,101014.66
2022-12-23T15:05:42.594Z,101020.25
2022-12-23T15:08:29.290Z,101024.75
2022-12-23T15:10:57.889Z,101015.88
2022-12-23T15:13:27.948Z,101006.78
2022-12-23T15:16:01.441Z,101009.53
2022-12-23T15:18:29.346Z,101008.66
2022-12-23T15:21:10.484Z,100991.03
2022-12-23T15:23:38.339Z,100975.91
2022-12-23T15:26:05.878Z,100980.00
2022-12-23T15:28:37.805Z,100978.94
2022-12-23T15:31:06.687Z,100981.78
2022-12-23T15:34:02.212Z,100983.19
2022-12-23T15:36:35.704Z,100987.78
2022-12-23T15:39:07.928Z,100987.38
2022-12-23T15:41:45.543Z,100982.31
2022-12-23T15:44:15.637Z,100976.69
2022-12-23T15:46:43.086Z,100971.47
2022-12-23T15:49:14.131Z,100956.28
2022-12-23T15:54:35.238Z,100963.06
2022-12-23T15:57:03.482Z,100976.09
2022-12-23T15:59:36.407Z,100994.59
2022-12-23T16:02:49.735Z,101006.16
2022-12-23T16:05:05.140Z,101012.00
2022-12-23T16:07:34.654Z,101002.78
2022-12-23T16:10:04.421Z,100992.63
2022-12-23T16:12:34.077Z,101006.34
2022-12-23T16:15:01.400Z,101016.25
2022-12-23T16:17:33.685Z,101020.66
2022-12-23T16:20:16.315Z,101012.09
2022-12-23T16:22:45.129Z,101023.38
2022-12-23T16:25:17.363Z,101017.72
2022-12-23T16:27:54.343Z,101014.88
2022-12-23T16:30:24.219Z,101017.38
2022-12-23T16:32:53.629Z,101020.28
2022-12-23T16:35:27.094Z,101027.44
2022-12-23T16:37:59.393Z,101035.22
2022-12-23T16:40:27.318Z,101033.63
2022-12-23T16:42:55.147Z,101034.94
2022-12-23T16:45:22.884Z,101033.56
2022-12-23T16:47:53.596Z,101034.09
2022-12-23T16:50:21.036Z,101032.41
2022-12-23T16:52:48.883Z,101025.69
2022-12-23T16:55:17.410Z,101026.03
2022-12-23T16:57:45.697Z,101023.22
2022-12-23T17:00:15.985Z,101034.28
2022-12-23T17:02:43.936Z,101041.50
2022-12-23T17:05:22.456Z,101038.31
2022-12-23T17:07:49.833Z,101046.41
2022-12-23T17:10:18.193Z,101037.78
2022-12-23T17:12:46.347Z,101037.25
2022-12-23T17:15:18.428Z,101028.84
2022-12-23T17:17:47.536Z,101012.69
2022-12-23T17:20:15.077Z,101015.81
2022-12-23T17:22:44.255Z,101010.03
2022-12-23T17:25:12.717Z,101013.22
2022-12-23T17:27:40.441Z,101014.69
2022-12-23T17:30:14.122Z,101018.00
2022-12-23T17:32:42.110Z,101017.34
2022-12-23T17:35:14.044Z,101014.34
2022-12-23T17:37:41.872Z,101014.34
2022-12-23T17:40:11.562Z,101024.28
2022-12-23T17:42:39.091Z,101031.94
2022-12-23T17:45:07.110Z,101039.25
2022-12-23T17:47:34.413Z,101038.69
2022-12-23T17:50:01.769Z,101024.94
2022-12-23T17:52:29.134Z,101008.84
2022-12-23T17:54:56.643Z,101029.88
2022-12-23T17:57:25.827Z,101055.97
2022-12-23T17:59:54.823Z,101070.56
2022-12-23T18:02:24.275Z,101085.66
2022-12-23T18:04:52.075Z,101074.03
2022-12-23T18:07:19.647Z,101070.03
2022-12-23T18:09:47.158Z,101072.84
2022-12-23T18:12:25.237Z,101070.63
2022-12-23T18:14:53.161Z,101070.78
2022-12-23T18:17:20.465Z,101068.94
2022-12-23T18:19:48.674Z,101059.91
2022-12-23T18:22:17.811Z,101051.34
2022-12-23T18:24:46.071Z,101058.78
2022-12-23T18:27:14.330Z,101053.53
2022-12-23T18:29:41.924Z,101054.34
2022-12-23T18:32:19.152Z,101061.25
2022-12-23T18:34:46.523Z,101050.88
2022-12-23T18:37:13.912Z,101048.78
2022-12-23T18:39:41.315Z,101050.56
2022-12-23T18:42:13.214Z,101047.38
2022-12-23T18:44:41.707Z,101044.72
2022-12-23T18:47:09.993Z,101041.41
2022-12-23T18:49:37.943Z,101039.91
2022-12-23T18:52:12.439Z,101030.22
2022-12-23T18:54:40.100Z,101025.44
2022-12-23T18:57:08.562Z,101024.72
2022-12-23T18:59:38.963Z,101038.50
2022-12-23T19:02:06.555Z,101049.72
2022-12-23T19:04:34.208Z,101043.94
2022-12-23T19:07:01.697Z,101026.63
2022-12-23T19:09:29.480Z,101009.88
2022-12-23T19:11:57.621Z,101015.53
2022-12-23T19:14:24.944Z,101006.72
2022-12-23T19:16:52.955Z,100983.50
2022-12-23T19:19:21.080Z,100990.63
2022-12-23T19:21:48.594Z,100983.75
2022-12-23T19:24:16.319Z,100992.09
2022-12-23T19:26:44.163Z,101004.88
2022-12-23T19:29:11.899Z,101015.53
2022-12-23T19:31:40.174Z,101013.88
2022-12-23T19:34:14.341Z,101031.00
2022-12-23T19:36:43.248Z,101052.50
2022-12-23T19:39:16.698Z,101057.22
2022-12-23T19:41:44.803Z,101057.41
2022-12-23T19:44:12.131Z,101049.72
2022-12-23T19:46:39.511Z,101046.91
2022-12-23T19:49:07.406Z,101062.13
2022-12-23T19:51:34.794Z,101050.13
2022-12-23T19:54:02.169Z,101053.16
2022-12-23T19:56:30.587Z,101065.53
2022-12-23T19:58:58.410Z,101071.41
2022-12-23T20:01:27.209Z,101072.34
2022-12-23T20:03:56.009Z,101064.81
2022-12-23T20:06:31.075Z,101054.59
2022-12-23T20:09:04.167Z,101040.25
2022-12-23T20:11:49.851Z,101027.28
2022-12-23T20:14:18.656Z,101024.28
2022-12-23T20:16:46.044Z,101027.94
2022-12-23T20:19:13.447Z,101046.88
2022-12-23T20:21:41.363Z,101044.56
2022-12-23T20:24:09.970Z,101051.38
2022-12-23T20:26:37.552Z,101051.06
2022-12-23T20:29:05.470Z,101054.69
2022-12-23T20:31:34.342Z,101055.41
2022-12-23T20:34:02.582Z,101044.84
2022-12-23T20:36:31.213Z,101050.91
2022-12-23T20:38:58.822Z,101064.78
2022-12-23T20:41:27.036Z,101073.59
2022-12-23T20:44:32.276Z,101063.72
2022-12-23T20:46:42.570Z,101046.31
2022-12-23T20:49:10.004Z,101055.78
2022-12-23T20:51:37.349Z,101061.03
2022-12-23T20:54:05.377Z,101060.41
2022-12-23T20:56:33.232Z,101042.22
2022-12-23T20:59:04.035Z,101060.69
2022-12-23T21:01:35.208Z,101058.16
2022-12-23T21:04:04.757Z,101063.06
2022-12-23T21:06:32.345Z,101065.41
2022-12-23T21:09:00.741Z,101072.59
2022-12-23T21:11:29.459Z,101074.19
2022-12-23T21:13:59.891Z,101076.44
2022-12-23T21:16:30.719Z,101078.72
2022-12-23T21:18:58.347Z,101066.56
2022-12-23T21:21:26.776Z,101066.25
2022-12-23T21:23:55.394Z,101044.09
2022-12-23T21:26:24.402Z,101034.94
2022-12-23T21:28:53.087Z,101047.94
2022-12-23T21:31:22.165Z,101047.19
2022-12-23T21:33:51.099Z,101055.25
2022-12-23T21:36:20.814Z,101058.50
2022-12-23T21:38:49.214Z,101066.19
2022-12-23T21:41:20.752Z,101067.38
2022-12-23T21:43:48.985Z,101055.41
2022-12-23T21:46:18.179Z,101059.50
2022-12-23T21:48:45.895Z,101076.72
2022-12-23T21:51:13.713Z,101094.91
2022-12-23T21:53:41.962Z,101092.72
2022-12-23T21:56:11.089Z,101093.53
2022-12-23T21:58:38.855Z,101107.56
2022-12-23T22:01:10.226Z,101118.53
2022-12-23T22:03:38.290Z,101117.78
2022-12-23T22:06:10.654Z,101108.41
2022-12-23T22:08:39.256Z,101107.47
2022-12-23T22:11:08.489Z,101098.84
2022-12-23T22:13:36.516Z,101095.91
2022-12-23T22:16:04.553Z,101100.19
2022-12-23T22:18:32.268Z,101079.88
2022-12-23T22:21:04.521Z,101057.91
2022-12-23T22:23:32.452Z,101034.31
2022-12-23T22:26:00.304Z,101060.03
2022-12-23T22:28:28.293Z,101057.97
2022-12-23T22:31:00.688Z,101051.16
2022-12-23T22:33:28.019Z,101052.94
2022-12-23T22:35:56.882Z,101052.59
2022-12-23T22:38:24.405Z,101050.84
2022-12-23T22:40:52.316Z,101042.16
2022-12-23T22:43:20.189Z,101036.50
2022-12-23T22:45:55.025Z,101017.00
2022-12-23T22:48:23.000Z,101002.31
2022-12-23T22:50:51.345Z,101002.13
2022-12-23T22:53:20.643Z,100997.09
2022-12-23T22:56:01.554Z,101001.41
2022-12-23T22:58:30.253Z,101001.56
2022-12-23T23:00:58.130Z,100989.81
2022-12-23T23:03:26.451Z,100987.16
2022-12-23T23:05:57.225Z,100998.09
2022-12-23T23:08:25.175Z,101001.22
2022-12-23T23:10:53.089Z,101003.69
2022-12-23T23:13:20.592Z,101011.09
2022-12-23T23:15:48.529Z,101019.03
2022-12-23T23:18:15.956Z,101023.84
2022-12-23T23:20:43.333Z,101019.84
2022-12-23T23:23:10.621Z,101023.69
2022-12-23T23:25:38.218Z,101026.22
2022-12-23T23:28:06.197Z,101023.16
2022-12-23T23:30:33.740Z,101016.31
2022-12-23T23:33:01.963Z,101014.22
2022-12-23T23:38:52.239Z,101002.00
2022-12-23T23:41:23.426Z,100986.13
2022-12-23T23:43:52.094Z,100981.31
2022-12-23T23:46:19.583Z,100996.56
2022-12-23T23:48:47.882Z,101007.91
2022-12-23T23:51:15.214Z,101005.06
2022-12-23T23:53:42.928Z,101006.31
2022-12-23T23:56:10.314Z,101011.19
2022-12-23T23:58:37.674Z,101034.19
